Time;durP1;ratioP1;P1;durP2;ratioP2;P2;SDS_P1;SDS_P2;PMS_P1;PMS_P2;Temp;Humidity;BMP_temperature;BMP_pressure;BME280_temperature;BME280_humidity;BME280_pressure;Samples;Min_cycle;Max_cycle;Signal;HPM_P1;HPM_P2
2022/02/17 00:04:45;;;;;;;0.00;0.00;;;;;;;8.72;100.00;98139.16;10430610;28;20020;-65
2022/02/17 00:09:46;;;;;;;0.03;0.03;;;;;;;8.68;100.00;98159.19;10444009;28;20040;-66
2022/02/17 00:14:46;;;;;;;0.10;0.10;;;;;;;8.70;100.00;98155.31;10409381;28;20029;-65
2022/02/17 00:19:46;;;;;;;0.10;0.10;;;;;;;8.74;100.00;98155.69;10405250;28;20303;-66
2022/02/17 00:24:47;;;;;;;0.10;0.10;;;;;;;8.78;100.00;98164.84;10446079;28;20040;-65
2022/02/17 00:29:47;;;;;;;0.00;0.00;;;;;;;8.76;100.00;98156.28;10407999;28;20040;-65
2022/02/17 00:34:47;;;;;;;0.10;0.10;;;;;;;8.75;100.00;98155.44;10409981;28;20026;-65
2022/02/17 00:39:48;;;;;;;0.10;0.10;;;;;;;8.74;100.00;98137.09;10411317;28;20399;-66
2022/02/17 00:44:50;;;;;;;0.08;0.08;;;;;;;8.79;100.00;98158.53;10419902;28;20059;-65
2022/02/17 00:49:50;;;;;;;0.10;0.10;;;;;;;8.84;100.00;98146.25;10443558;28;20112;-66
2022/02/17 00:54:50;;;;;;;0.10;0.10;;;;;;;8.86;99.97;98153.97;10453735;28;20453;-65
2022/02/17 00:59:51;;;;;;;0.10;0.10;;;;;;;8.84;99.33;98156.03;10453419;28;20321;-66
2022/02/17 01:04:51;;;;;;;0.10;0.10;;;;;;;8.90;97.92;98147.22;10442766;28;20040;-66
2022/02/17 01:09:51;;;;;;;0.00;0.00;;;;;;;8.90;100.00;98130.47;10448043;28;20014;-66
2022/02/17 01:14:52;;;;;;;0.10;0.10;;;;;;;8.85;100.00;98141.75;10419310;28;20021;-65
2022/02/17 01:19:52;;;;;;;0.10;0.10;;;;;;;8.79;100.00;98124.00;10442679;28;20456;-66
2022/02/17 01:24:52;;;;;;;0.10;0.10;;;;;;;8.83;99.58;98131.31;10452721;28;20551;-66
2022/02/17 01:29:52;;;;;;;0.10;0.10;;;;;;;8.82;98.99;98136.84;10452967;28;20329;-66
2022/02/17 01:34:53;;;;;;;0.10;0.10;;;;;;;8.82;97.56;98135.00;10452220;28;20295;-66
2022/02/17 01:39:53;;;;;;;0.00;0.00;;;;;;;8.86;96.05;98122.13;10447119;28;20010;-66
2022/02/17 01:44:53;;;;;;;0.08;0.08;;;;;;;8.89;96.07;98128.84;10421159;28;20029;-66
2022/02/17 01:49:54;;;;;;;0.10;0.10;;;;;;;8.81;97.74;98135.22;10412245;28;20417;-66
2022/02/17 01:54:55;;;;;;;0.10;0.10;;;;;;;8.77;94.48;98137.47;10437027;28;20104;-66
2022/02/17 01:59:55;;;;;;;0.00;0.00;;;;;;;8.83;91.64;98144.59;10410145;28;20018;-65
2022/02/17 02:04:56;;;;;;;0.00;0.00;;;;;;;8.78;92.11;98160.34;10447232;28;20025;-66
2022/02/17 02:09:56;;;;;;;0.05;0.05;;;;;;;8.71;89.87;98138.34;10424026;28;20026;-66
2022/02/17 02:14:58;;;;;;;0.08;0.08;;;;;;;8.58;91.96;98147.19;10416766;28;20112;-66
2022/02/17 02:19:58;;;;;;;0.00;0.00;;;;;;;8.47;90.53;98136.44;10418476;28;20105;-66
2022/02/17 02:25:00;;;;;;;0.10;0.10;;;;;;;8.35;92.75;98152.16;10449531;28;20027;-66
2022/02/17 02:30:01;;;;;;;0.00;0.00;;;;;;;8.20;92.42;98133.03;10450440;28;20112;-66
2022/02/17 02:35:02;;;;;;;0.00;0.00;;;;;;;8.04;93.99;98156.34;10450375;28;20458;-66
2022/02/17 02:40:03;;;;;;;0.00;0.00;;;;;;;8.00;94.41;98181.63;10447501;28;20021;-66
2022/02/17 02:45:03;;;;;;;0.10;0.10;;;;;;;7.96;95.17;98169.81;10419521;28;20013;-66
2022/02/17 02:50:04;;;;;;;0.00;0.00;;;;;;;7.89;96.92;98184.91;10408439;28;20021;-66
2022/02/17 02:55:05;;;;;;;0.03;0.03;;;;;;;7.88;95.37;98173.50;10407833;28;20108;-65
2022/02/17 03:00:06;;;;;;;0.10;0.10;;;;;;;7.88;95.99;98185.91;10440831;28;20017;-66
2022/02/17 03:05:07;;;;;;;0.00;0.00;;;;;;;7.84;95.27;98155.56;10421529;28;20025;-66
2022/02/17 03:10:08;;;;;;;0.10;0.10;;;;;;;7.83;95.50;98175.94;10417168;28;20030;-65
2022/02/17 03:15:09;;;;;;;0.10;0.10;;;;;;;7.82;95.82;98184.91;10414601;28;20025;-66
2022/02/17 03:20:10;;;;;;;0.00;0.00;;;;;;;7.82;94.66;98182.25;10407326;28;20022;-66
2022/02/17 03:25:13;;;;;;;0.00;0.00;;;;;;;7.82;93.95;98189.41;10407055;28;20032;-66
2022/02/17 03:30:13;;;;;;;0.00;0.00;;;;;;;7.80;95.30;98192.25;10424114;28;20028;-66
2022/02/17 03:35:13;;;;;;;0.00;0.00;;;;;;;7.81;93.13;98178.00;10423005;28;20384;-66
2022/02/17 03:40:14;;;;;;;0.10;0.10;;;;;;;7.79;94.46;98185.31;10413358;28;20718;-66
2022/02/17 03:45:14;;;;;;;0.00;0.00;;;;;;;7.80;93.47;98181.66;10416261;28;20111;-66
2022/02/17 03:50:15;;;;;;;0.00;0.00;;;;;;;7.78;93.10;98185.53;10406111;28;20029;-66
2022/02/17 03:55:16;;;;;;;0.00;0.00;;;;;;;7.74;93.08;98201.03;10406410;28;20036;-65
2022/02/17 04:00:17;;;;;;;0.00;0.00;;;;;;;7.73;91.82;98175.53;10405848;28;20026;-66
2022/02/17 04:05:17;;;;;;;0.00;0.00;;;;;;;7.74;92.59;98195.75;10445534;28;20032;-66
2022/02/17 04:10:17;;;;;;;0.00;0.00;;;;;;;7.73;91.71;98228.53;10407498;28;20098;-66
2022/02/17 04:15:18;;;;;;;0.10;0.10;;;;;;;7.68;93.70;98204.50;10430767;28;20268;-66
2022/02/17 04:20:18;;;;;;;0.00;0.00;;;;;;;7.61;93.91;98228.34;10429014;28;20056;-66
2022/02/17 04:25:18;;;;;;;0.00;0.00;;;;;;;7.51;96.24;98209.41;10405763;28;20021;-66
2022/02/17 04:30:18;;;;;;;0.00;0.00;;;;;;;7.46;95.16;98233.03;10405761;28;20429;-66
2022/02/17 04:35:19;;;;;;;0.10;0.10;;;;;;;7.48;93.93;98215.09;10405721;28;20372;-66
2022/02/17 04:40:19;;;;;;;0.00;0.00;;;;;;;7.45;95.77;98215.50;10402666;28;20260;-65
2022/02/17 04:45:19;;;;;;;0.00;0.00;;;;;;;7.41;96.13;98222.22;10415965;28;20032;-66
2022/02/17 04:50:20;;;;;;;0.10;0.10;;;;;;;7.29;99.44;98242.38;10409403;28;20035;-66
2022/02/17 04:55:20;;;;;;;0.00;0.00;;;;;;;7.15;100.00;98244.16;10443207;28;20270;-65
2022/02/17 05:00:20;;;;;;;0.00;0.00;;;;;;;7.09;100.00;98235.19;10445401;28;20048;-66
2022/02/17 05:05:21;;;;;;;0.00;0.00;;;;;;;7.05;100.00;98255.13;10445666;28;20021;-66
2022/02/17 05:10:21;;;;;;;0.10;0.10;;;;;;;6.99;100.00;98245.34;10436199;28;20053;-66
2022/02/17 05:15:21;;;;;;;0.00;0.00;;;;;;;6.94;100.00;98239.84;10411804;28;20089;-66
2022/02/17 05:20:23;;;;;;;0.10;0.10;;;;;;;6.92;100.00;98234.75;10494092;22;20315;-68
2022/02/17 05:25:23;;;;;;;0.10;0.10;;;;;;;6.93;100.00;98240.84;10466952;28;20025;-68
2022/02/17 05:30:23;;;;;;;0.00;0.00;;;;;;;6.85;100.00;98248.97;10475908;28;20096;-69
2022/02/17 05:35:24;;;;;;;0.10;0.10;;;;;;;6.83;100.00;98245.69;10475224;28;20460;-68
2022/02/17 05:40:24;;;;;;;0.00;0.00;;;;;;;6.74;100.00;98261.72;10477560;28;20089;-68
2022/02/17 05:45:25;;;;;;;0.03;0.03;;;;;;;6.66;100.00;98308.69;10471225;28;20044;-68
2022/02/17 05:50:26;;;;;;;0.00;0.00;;;;;;;6.57;100.00;98268.38;10482959;28;20028;-68
2022/02/17 05:55:27;;;;;;;0.08;0.08;;;;;;;6.50;100.00;98278.13;10475509;28;20016;-68
2022/02/17 06:00:27;;;;;;;0.00;0.00;;;;;;;6.49;100.00;98327.53;10476659;28;20016;-68
2022/02/17 06:05:27;;;;;;;0.00;0.00;;;;;;;6.49;100.00;98324.09;10465624;28;20027;-67
2022/02/17 06:10:28;;;;;;;0.00;0.00;;;;;;;6.36;100.00;98375.03;10469572;28;20108;-68
2022/02/17 06:15:28;;;;;;;0.00;0.00;;;;;;;6.28;100.00;98378.66;10481064;28;20020;-68
2022/02/17 06:20:28;;;;;;;0.00;0.00;;;;;;;6.19;100.00;98397.47;10487695;28;20035;-68
2022/02/17 06:25:29;;;;;;;0.00;0.00;;;;;;;6.15;100.00;98439.31;10456483;28;20095;-68
2022/02/17 06:30:29;;;;;;;0.00;0.00;;;;;;;6.12;100.00;98418.56;10454683;28;20524;-68
2022/02/17 06:35:33;;;;;;;0.00;0.00;;;;;;;6.15;100.00;98414.72;10480033;28;20395;-68
2022/02/17 06:40:33;;;;;;;0.00;0.00;;;;;;;6.16;100.00;98462.09;10464627;28;20021;-68
2022/02/17 06:45:35;;;;;;;0.00;0.00;;;;;;;6.24;100.00;98456.69;10490594;28;20024;-68
2022/02/17 06:50:36;;;;;;;0.00;0.00;;;;;;;6.26;100.00;98477.66;10455676;28;20017;-68
2022/02/17 06:55:37;;;;;;;0.00;0.00;;;;;;;6.26;100.00;98470.56;10463355;28;20307;-68
2022/02/17 07:00:37;;;;;;;0.00;0.00;;;;;;;6.22;100.00;98469.28;10463312;28;20032;-68
2022/02/17 07:05:38;;;;;;;0.00;0.00;;;;;;;6.23;100.00;98550.25;10471487;28;20021;-68
2022/02/17 07:10:56;;;;;;;0.00;0.00;;;;;;;6.18;100.00;98535.94;10471352;28;20036;-68
2022/02/17 07:15:57;;;;;;;0.00;0.00;;;;;;;6.06;100.00;98562.03;10472361;28;20013;-68
2022/02/17 07:20:58;;;;;;;0.00;0.00;;;;;;;5.94;100.00;98579.38;10449049;28;20063;-68
2022/02/17 07:25:59;;;;;;;0.00;0.00;;;;;;;5.78;100.00;98593.56;10459768;28;20464;-68
2022/02/17 07:30:59;;;;;;;0.00;0.00;;;;;;;5.72;100.00;98632.06;10434237;28;20083;-68
2022/02/17 07:35:59;;;;;;;0.00;0.00;;;;;;;5.68;100.00;98663.31;10467654;28;20021;-68
2022/02/17 07:41:00;;;;;;;0.00;0.00;;;;;;;5.67;100.00;98672.25;10458913;28;20308;-68
2022/02/17 07:46:00;;;;;;;0.00;0.00;;;;;;;5.72;100.00;98684.09;10471277;28;20390;-68
2022/02/17 07:51:00;;;;;;;0.00;0.00;;;;;;;5.77;100.00;98708.16;10490665;28;20085;-68
2022/02/17 07:56:01;;;;;;;0.00;0.00;;;;;;;5.77;100.00;98734.56;10473358;28;20024;-68
2022/02/17 08:01:01;;;;;;;0.00;0.00;;;;;;;5.77;100.00;98745.97;10469658;28;20345;-68
2022/02/17 08:06:03;;;;;;;0.00;0.00;;;;;;;5.80;100.00;98765.91;10491151;28;20250;-68
2022/02/17 08:11:05;;;;;;;0.00;0.00;;;;;;;5.84;100.00;98794.44;10453545;28;20114;-68
2022/02/17 08:16:05;;;;;;;0.00;0.00;;;;;;;5.89;100.00;98805.28;10486283;28;20107;-68
2022/02/17 08:21:06;;;;;;;0.57;0.45;;;;;;;5.90;100.00;98836.03;10480949;28;20030;-68
2022/02/17 08:26:06;;;;;;;0.00;0.00;;;;;;;5.93;100.00;98884.22;10463335;28;20387;-68
2022/02/17 08:31:06;;;;;;;0.00;0.00;;;;;;;5.93;100.00;98882.41;10489148;28;20757;-68
2022/02/17 08:36:07;;;;;;;0.00;0.00;;;;;;;5.95;100.00;98879.59;10488316;28;20426;-68
2022/02/17 08:41:08;;;;;;;0.00;0.00;;;;;;;6.01;100.00;98937.03;10478536;28;20021;-68
2022/02/17 08:46:09;;;;;;;0.10;0.10;;;;;;;5.99;100.00;98947.81;10488763;28;20102;-68
2022/02/17 08:51:09;;;;;;;0.00;0.00;;;;;;;6.01;100.00;98976.69;10491709;28;20033;-68
2022/02/17 08:56:10;;;;;;;0.00;0.00;;;;;;;6.03;100.00;98983.44;10497157;28;20020;-68
2022/02/17 09:01:10;;;;;;;0.00;0.00;;;;;;;5.95;100.00;99015.19;10499760;28;20440;-68
2022/02/17 09:06:10;;;;;;;0.00;0.00;;;;;;;5.85;100.00;99035.72;10499618;28;20024;-67
2022/02/17 09:11:12;;;;;;;0.00;0.00;;;;;;;5.83;100.00;99041.16;10484953;28;20033;-69
2022/02/17 09:16:12;;;;;;;0.00;0.00;;;;;;;5.86;100.00;99051.38;10457671;28;20403;-68
2022/02/17 09:21:16;;;;;;;0.00;0.00;;;;;;;5.94;100.00;99089.38;10457183;28;20028;-68
2022/02/17 09:26:18;;;;;;;0.00;0.00;;;;;;;6.02;100.00;99081.38;10457046;28;20290;-68
2022/02/17 09:31:19;;;;;;;0.00;0.00;;;;;;;6.13;100.00;99096.88;10457389;28;20025;-67
2022/02/17 09:36:26;;;;;;;0.00;0.00;;;;;;;6.30;100.00;99111.66;10456882;28;20028;-68
2022/02/17 09:41:27;;;;;;;0.00;0.00;;;;;;;6.44;100.00;99130.44;10456338;28;20020;-68
2022/02/17 09:46:28;;;;;;;0.00;0.00;;;;;;;6.46;100.00;99158.38;10446888;28;20029;-68
2022/02/17 09:51:30;;;;;;;0.00;0.00;;;;;;;6.45;100.00;99172.56;10453106;28;20090;-68
2022/02/17 09:56:30;;;;;;;0.00;0.00;;;;;;;6.41;100.00;99208.31;10456737;28;20061;-68
2022/02/17 10:01:31;;;;;;;0.00;0.00;;;;;;;6.35;100.00;99233.63;10456577;28;20061;-68
2022/02/17 10:06:40;;;;;;;0.00;0.00;;;;;;;6.29;100.00;99226.38;10456394;28;20263;-68
2022/02/17 10:11:42;;;;;;;0.00;0.00;;;;;;;6.13;100.00;99255.50;10438052;28;20597;-68
2022/02/17 10:17:10;;;;;;;0.00;0.00;;;;;;;6.11;100.00;99271.53;10441577;28;20048;-68
2022/02/17 10:22:15;;;;;;;0.00;0.00;;;;;;;6.05;100.00;99292.50;10494442;28;20107;-68
2022/02/17 10:27:23;;;;;;;0.00;0.00;;;;;;;6.05;100.00;99313.66;10497381;28;20116;-68
2022/02/17 10:32:24;;;;;;;0.00;0.00;;;;;;;6.10;100.00;99322.72;10497114;28;20032;-68
2022/02/17 10:37:53;;;;;;;0.00;0.00;;;;;;;6.25;100.00;99349.31;10478408;28;20042;-69
2022/02/17 10:43:15;;;;;;;0.00;0.00;;;;;;;6.30;100.00;99346.19;10496021;28;20032;-69
2022/02/17 10:48:21;;;;;;;0.10;0.10;;;;;;;6.40;100.00;99378.56;10477891;28;20476;-69
2022/02/17 10:53:23;;;;;;;0.10;0.10;;;;;;;6.40;100.00;99375.09;10496480;28;20032;-69
2022/02/17 10:58:29;;;;;;;0.00;0.00;;;;;;;6.28;100.00;99387.81;10495767;28;20020;-69
2022/02/17 11:03:34;;;;;;;0.00;0.00;;;;;;;6.07;100.00;99394.44;10495710;28;20028;-69
2022/02/17 11:08:35;;;;;;;0.00;0.00;;;;;;;6.00;100.00;99401.41;10495250;28;20024;-69
2022/02/17 11:13:36;;;;;;;0.10;0.10;;;;;;;5.88;100.00;99405.31;10477188;28;20119;-69
2022/02/17 11:18:38;;;;;;;0.03;0.03;;;;;;;5.76;100.00;99417.16;10447952;22;20244;-68
2022/02/17 11:23:38;;;;;;;0.00;0.00;;;;;;;5.79;100.00;99416.84;10406837;28;20108;-68
2022/02/17 11:28:47;;;;;;;0.00;0.00;;;;;;;5.78;100.00;99431.88;10410386;28;20458;-69
2022/02/17 11:34:07;;;;;;;0.10;0.10;;;;;;;5.61;100.00;99448.69;10411284;28;20057;-69
2022/02/17 11:39:10;;;;;;;0.00;0.00;;;;;;;5.49;100.00;99476.38;10410940;28;20095;-68
2022/02/17 11:44:22;;;;;;;0.00;0.00;;;;;;;5.35;100.00;99480.44;10410683;28;20029;-68
2022/02/17 11:49:29;;;;;;;0.00;0.00;;;;;;;5.26;100.00;99505.97;10405420;28;20029;-68
2022/02/17 11:54:30;;;;;;;0.00;0.00;;;;;;;5.16;100.00;99503.47;10413602;28;20037;-69
2022/02/17 11:59:35;;;;;;;0.00;0.00;;;;;;;5.14;100.00;99533.63;10410336;28;20039;-69
2022/02/17 12:04:35;;;;;;;0.08;0.08;;;;;;;5.01;100.00;99549.06;10410659;28;20431;-68
2022/02/17 12:09:43;;;;;;;0.00;0.00;;;;;;;4.87;100.00;99571.56;10410940;28;20025;-68
2022/02/17 12:14:52;;;;;;;0.00;0.00;;;;;;;4.70;100.00;99576.69;10410286;28;20292;-69
2022/02/17 12:20:06;;;;;;;0.00;0.00;;;;;;;4.55;100.00;99546.56;10410126;28;20079;-69
2022/02/17 12:25:15;;;;;;;0.10;0.10;;;;;;;4.51;100.00;99577.69;10403760;28;20424;-69
2022/02/17 12:30:39;;;;;;;0.00;0.00;;;;;;;4.50;100.00;99602.38;10413947;28;20052;-68
2022/02/17 12:35:44;;;;;;;;;;;;;;;4.42;100.00;99604.97;10419064;28;20032;-69
2022/02/17 12:40:46;;;;;;;;;;;;;;;4.18;100.00;99615.22;10418188;28;19992;-69
2022/02/17 12:45:48;;;;;;;0.00;0.00;;;;;;;4.16;100.00;99619.81;10400273;28;20376;-69
2022/02/17 12:50:48;;;;;;;0.00;0.00;;;;;;;4.20;100.00;99676.53;10417012;28;20025;-68
2022/02/17 12:55:54;;;;;;;0.00;0.00;;;;;;;4.31;100.00;99652.63;10413148;28;20120;-69
2022/02/17 13:00:54;;;;;;;0.00;0.00;;;;;;;4.38;100.00;99651.03;10416909;28;20023;-69
2022/02/17 13:11:15;;;;;;;0.00;0.00;;;;;;;4.48;100.00;99666.78;10416409;28;20026;-68
2022/02/17 13:16:18;;;;;;;0.00;0.00;;;;;;;4.62;100.00;99674.19;10416605;28;20060;-68
2022/02/17 13:21:20;;;;;;;0.00;0.00;;;;;;;4.57;100.00;99662.44;10416187;28;20028;-68
2022/02/17 13:26:31;;;;;;;0.00;0.00;;;;;;;4.52;100.00;99663.72;10411340;28;20583;-68
2022/02/17 13:31:34;;;;;;;0.00;0.00;;;;;;;4.58;100.00;99672.03;10415999;28;20395;-69
2022/02/17 13:36:35;;;;;;;0.00;0.00;;;;;;;4.71;100.00;99675.09;10416251;28;20022;-69
2022/02/17 13:41:37;;;;;;;0.00;0.00;;;;;;;4.84;100.00;99691.41;10415329;28;20422;-68
2022/02/17 13:46:50;;;;;;;0.00;0.00;;;;;;;5.04;100.00;99696.56;10415439;28;20037;-69
2022/02/17 13:51:51;;;;;;;0.00;0.00;;;;;;;5.40;100.00;99705.25;10414861;28;20041;-68
2022/02/17 13:56:52;;;;;;;0.00;0.00;;;;;;;5.71;100.00;99712.75;10429791;28;20025;-68
2022/02/17 14:01:52;;;;;;;0.00;0.00;;;;;;;5.91;100.00;99719.50;10455718;28;20036;-69
2022/02/17 14:06:56;;;;;;;0.00;0.00;;;;;;;6.08;100.00;99723.09;10454553;28;20021;-69
2022/02/17 14:11:57;;;;;;;0.00;0.00;;;;;;;6.18;100.00;99730.91;10455294;28;20116;-68
2022/02/17 14:16:57;;;;;;;0.00;0.00;;;;;;;6.23;100.00;99720.69;10455616;28;20032;-69
2022/02/17 14:21:58;;;;;;;0.00;0.00;;;;;;;6.29;100.00;99735.94;10454569;28;20040;-69
2022/02/17 14:27:00;;;;;;;0.00;0.00;;;;;;;6.37;100.00;99757.13;10409287;28;20404;-69
2022/02/17 14:32:03;;;;;;;0.10;0.10;;;;;;;6.33;100.00;99756.59;10418685;28;20029;-69
2022/02/17 14:37:04;;;;;;;0.00;0.00;;;;;;;6.27;100.00;99778.38;10419662;28;20017;-70
2022/02/17 14:42:05;;;;;;;0.00;0.00;;;;;;;6.17;100.00;99772.38;10432127;28;20017;-70
2022/02/17 14:47:05;;;;;;;0.00;0.00;;;;;;;6.04;100.00;99777.25;10440078;28;20029;-70
2022/02/17 14:52:05;;;;;;;0.00;0.00;;;;;;;5.71;100.00;99802.59;10428865;28;20032;-70
2022/02/17 14:57:06;;;;;;;0.05;0.05;;;;;;;5.03;100.00;99811.81;10431162;28;20021;-70
2022/02/17 15:02:06;;;;;;;0.00;0.00;;;;;;;5.07;100.00;99805.28;10440794;28;20039;-70
2022/02/17 15:07:07;;;;;;;0.00;0.00;;;;;;;5.47;100.00;99795.28;10429611;28;20020;-70
2022/02/17 15:12:08;;;;;;;0.00;0.00;;;;;;;5.68;100.00;99823.03;10423657;28;20391;-70
2022/02/17 15:17:08;;;;;;;0.00;0.00;;;;;;;5.78;100.00;99824.78;10431892;28;20028;-70
2022/02/17 15:22:08;;;;;;;0.00;0.00;;;;;;;5.79;100.00;99835.19;10432606;28;20391;-69
2022/02/17 15:27:09;;;;;;;0.00;0.00;;;;;;;5.79;100.00;99815.84;10429677;28;20643;-70
2022/02/17 15:32:09;;;;;;;0.00;0.00;;;;;;;5.64;100.00;99874.53;10422219;28;20048;-70
2022/02/17 15:37:10;;;;;;;0.00;0.00;;;;;;;5.25;100.00;99899.53;10429312;28;20043;-70
2022/02/17 15:42:10;;;;;;;0.00;0.00;;;;;;;4.74;100.00;99899.03;10413760;28;20681;-70
2022/02/17 15:47:10;;;;;;;0.00;0.00;;;;;;;4.54;100.00;99898.31;10437362;28;20032;-70
2022/02/17 15:52:13;;;;;;;0.00;0.00;;;;;;;4.52;100.00;99908.97;10424194;28;20290;-71
2022/02/17 15:57:14;;;;;;;0.00;0.00;;;;;;;4.67;100.00;99905.88;10426121;28;20029;-69
2022/02/17 16:02:16;;;;;;;0.00;0.00;;;;;;;4.82;100.00;99922.91;10439932;28;20095;-69
2022/02/17 16:07:16;;;;;;;0.00;0.00;;;;;;;5.02;100.00;99910.47;10432254;28;20035;-69
2022/02/17 16:12:16;;;;;;;0.00;0.00;;;;;;;5.19;100.00;99919.44;10431247;28;20032;-69
2022/02/17 16:17:17;;;;;;;0.00;0.00;;;;;;;5.23;100.00;99915.50;10422891;28;20264;-70
2022/02/17 16:22:19;;;;;;;0.00;0.00;;;;;;;5.19;100.00;99916.78;10424846;28;20067;-69
2022/02/17 16:27:20;;;;;;;0.00;0.00;;;;;;;5.07;100.00;99932.00;10430801;28;20286;-69
2022/02/17 16:32:20;;;;;;;0.00;0.00;;;;;;;4.96;100.00;99959.38;10421952;28;20025;-69
2022/02/17 16:37:21;;;;;;;0.00;0.00;;;;;;;4.90;100.00;99967.06;10420143;28;20025;-69
2022/02/17 16:42:22;;;;;;;0.00;0.00;;;;;;;4.90;100.00;99977.63;10425082;28;20025;-69
2022/02/17 16:47:23;;;;;;;0.00;0.00;;;;;;;4.93;100.00;99978.16;10439343;28;20029;-69
2022/02/17 16:52:23;;;;;;;0.00;0.00;;;;;;;5.01;100.00;99997.72;10434708;28;20021;-69
2022/02/17 16:57:24;;;;;;;0.00;0.00;;;;;;;5.06;100.00;99998.97;10420838;28;20028;-69
2022/02/17 17:02:24;;;;;;;0.00;0.00;;;;;;;5.16;100.00;100022.69;10441657;28;20063;-69
2022/02/17 17:07:24;;;;;;;0.00;0.00;;;;;;;5.21;100.00;100036.28;10432732;28;20025;-69
2022/02/17 17:12:25;;;;;;;0.00;0.00;;;;;;;5.27;100.00;100043.63;10423749;28;20025;-69
2022/02/17 17:22:34;;;;;;;0.00;0.00;;;;;;;5.28;100.00;100057.66;10404472;28;20056;-67
2022/02/17 17:27:35;;;;;;;0.00;0.00;;;;;;;5.27;100.00;100062.13;10417030;28;20484;-67
2022/02/17 17:32:35;;;;;;;0.00;0.00;;;;;;;5.29;100.00;100091.00;10414943;28;20104;-66
2022/02/17 17:37:36;;;;;;;0.00;0.00;;;;;;;5.33;100.00;100081.84;10406629;28;20020;-67
2022/02/17 17:42:37;;;;;;;0.00;0.00;;;;;;;5.33;100.00;100073.91;10413460;28;20062;-67
2022/02/17 17:47:38;;;;;;;0.00;0.00;;;;;;;5.25;100.00;100098.38;10414568;28;20017;-67
2022/02/17 17:52:38;;;;;;;0.00;0.00;;;;;;;5.11;100.00;100091.75;10413359;28;20043;-67
2022/02/17 17:57:38;;;;;;;0.00;0.00;;;;;;;5.03;100.00;100088.13;10414562;28;20535;-67
2022/02/17 18:02:39;;;;;;;0.00;0.00;;;;;;;4.99;100.00;100106.91;10407771;28;20311;-67
2022/02/17 18:07:42;;;;;;;0.00;0.00;;;;;;;5.05;100.00;100123.97;10410385;28;20075;-67
2022/02/17 18:12:43;;;;;;;0.00;0.00;;;;;;;5.10;100.00;100118.28;10412495;28;20021;-67
2022/02/17 18:17:44;;;;;;;0.00;0.00;;;;;;;5.15;100.00;100135.38;10412798;28;20025;-67
2022/02/17 18:22:45;;;;;;;0.00;0.00;;;;;;;5.12;100.00;100138.31;10397037;28;20094;-67
2022/02/17 18:27:47;;;;;;;0.00;0.00;;;;;;;5.04;100.00;100138.16;10407236;28;20080;-67
2022/02/17 18:32:48;;;;;;;0.00;0.00;;;;;;;5.05;100.00;100158.28;10393840;28;20017;-67
2022/02/17 18:37:50;;;;;;;0.00;0.00;;;;;;;5.10;100.00;100179.00;10412405;28;20024;-67
2022/02/17 18:42:50;;;;;;;0.00;0.00;;;;;;;5.09;100.00;100180.81;10411198;28;20272;-67
2022/02/17 18:47:52;;;;;;;0.00;0.00;;;;;;;5.07;100.00;100189.84;10362707;28;20030;-67
2022/02/17 18:52:53;;;;;;;0.00;0.00;;;;;;;5.07;100.00;100187.22;10391919;28;20021;-67
2022/02/17 18:57:59;;;;;;;0.00;0.00;;;;;;;5.02;100.00;100192.06;10390382;28;20025;-67
2022/02/17 19:02:59;;;;;;;0.00;0.00;;;;;;;4.97;100.00;100203.88;10411431;28;20937;-67
2022/02/17 19:08:00;;;;;;;0.00;0.00;;;;;;;4.98;100.00;100228.47;10410233;28;20163;-67
2022/02/17 19:13:01;;;;;;;0.00;0.00;;;;;;;4.93;100.00;100238.59;10410265;28;20025;-67
2022/02/17 19:18:01;;;;;;;0.00;0.00;;;;;;;4.87;100.00;100226.78;10392331;28;20519;-67
2022/02/17 19:23:04;;;;;;;0.00;0.00;;;;;;;4.90;100.00;100242.34;10409993;28;20268;-67
2022/02/17 19:28:04;;;;;;;0.00;0.00;;;;;;;4.86;100.00;100235.69;10384281;28;20025;-67
2022/02/17 19:33:08;;;;;;;0.00;0.00;;;;;;;4.94;100.00;100264.00;10397469;28;20387;-67
2022/02/17 19:38:09;;;;;;;0.00;0.00;;;;;;;5.02;100.00;100277.34;10367999;28;20370;-67
2022/02/17 19:43:09;;;;;;;0.00;0.00;;;;;;;5.08;100.00;100282.09;10377146;28;20022;-67
2022/02/17 19:48:09;;;;;;;0.00;0.00;;;;;;;5.10;100.00;100284.59;10407055;28;20021;-67
2022/02/17 19:53:10;;;;;;;0.00;0.00;;;;;;;5.12;100.00;100293.19;10394287;28;20030;-67
2022/02/17 19:58:11;;;;;;;0.00;0.00;;;;;;;5.16;100.00;100311.28;10367899;28;20261;-67
2022/02/17 20:03:11;;;;;;;0.00;0.00;;;;;;;5.16;100.00;100311.28;10368355;28;20025;-67
2022/02/17 20:08:11;;;;;;;0.00;0.00;;;;;;;5.16;100.00;100326.28;10374774;28;20022;-67
2022/02/17 20:13:12;;;;;;;0.00;0.00;;;;;;;5.12;100.00;100330.16;10350248;28;20030;-67
2022/02/17 20:18:12;;;;;;;0.00;0.00;;;;;;;5.08;100.00;100321.69;10398065;28;20036;-67
2022/02/17 20:23:12;;;;;;;0.00;0.00;;;;;;;5.11;100.00;100334.63;10368030;28;20030;-67
2022/02/17 20:28:13;;;;;;;0.00;0.00;;;;;;;5.19;100.00;100345.34;10367940;28;20496;-66
2022/02/17 20:33:14;;;;;;;0.00;0.00;;;;;;;5.18;100.00;100356.06;10367533;28;20469;-66
2022/02/17 20:38:14;;;;;;;0.00;0.00;;;;;;;5.18;100.00;100356.06;10367118;28;20096;-66
2022/02/17 20:43:17;;;;;;;0.00;0.00;;;;;;;5.16;100.00;100355.34;10368482;28;20076;-67
2022/02/17 20:53:36;;;;;;;0.00;0.00;;;;;;;5.18;100.00;100363.97;10374757;28;20432;-67
2022/02/17 20:58:38;;;;;;;0.00;0.00;;;;;;;5.19;100.00;100392.03;10374769;28;20017;-67
2022/02/17 21:03:38;;;;;;;0.00;0.00;;;;;;;5.14;100.00;100381.03;10396844;28;20017;-67
2022/02/17 21:08:41;;;;;;;0.00;0.00;;;;;;;5.10;100.00;100377.00;10414946;28;20021;-67
2022/02/17 21:13:42;;;;;;;0.00;0.00;;;;;;;5.12;100.00;100380.31;10397606;28;20087;-67
2022/02/17 21:18:44;;;;;;;0.00;0.00;;;;;;;5.11;100.00;100407.72;10414826;28;20025;-67
2022/02/17 21:23:45;;;;;;;0.08;0.08;;;;;;;5.14;100.00;100407.44;10414574;28;20025;-67
2022/02/17 21:28:46;;;;;;;0.00;0.00;;;;;;;5.16;100.00;100405.50;10414572;28;20017;-67
2022/02/17 21:33:46;;;;;;;0.10;0.10;;;;;;;5.19;100.00;100418.44;10414948;28;20013;-68
2022/02/17 21:38:47;;;;;;;0.00;0.00;;;;;;;5.19;100.00;100419.28;10414061;28;20468;-67
2022/02/17 21:43:48;;;;;;;0.00;0.00;;;;;;;5.17;100.00;100444.13;10412568;28;20021;-67
2022/02/17 21:48:49;;;;;;;0.00;0.00;;;;;;;5.15;100.00;100435.53;10393459;28;20546;-68
2022/02/17 21:53:49;;;;;;;0.00;0.00;;;;;;;5.11;100.00;100440.22;10401329;28;20026;-68
2022/02/17 21:58:50;;;;;;;0.00;0.00;;;;;;;5.04;100.00;100449.66;10380031;28;20014;-68
2022/02/17 22:03:51;;;;;;;0.00;0.00;;;;;;;4.95;100.00;100443.34;10395573;28;20266;-68
2022/02/17 22:08:52;;;;;;;0.00;0.00;;;;;;;4.90;100.00;100461.38;10365246;28;20025;-69
2022/02/17 22:13:52;;;;;;;0.00;0.00;;;;;;;4.82;100.00;100448.00;10376276;28;20087;-68
2022/02/17 22:18:52;;;;;;;0.00;0.00;;;;;;;4.80;100.00;100459.66;10393780;28;20637;-68
2022/02/17 22:23:53;;;;;;;0.00;0.00;;;;;;;4.84;100.00;100467.19;10412098;28;20036;-69
2022/02/17 22:28:53;;;;;;;0.00;0.00;;;;;;;4.89;100.00;100472.94;10409158;28;20044;-69
2022/02/17 22:33:53;;;;;;;0.00;0.00;;;;;;;4.94;100.00;100486.53;10371088;28;20042;-68
2022/02/17 22:38:55;;;;;;;0.00;0.00;;;;;;;4.96;100.00;100486.41;10370486;28;20076;-68
2022/02/17 22:43:55;;;;;;;0.00;0.00;;;;;;;4.93;100.00;100486.69;10375679;28;20032;-69
2022/02/17 22:48:56;;;;;;;0.00;0.00;;;;;;;4.84;100.00;100487.47;10392667;28;20388;-68
2022/02/17 22:53:56;;;;;;;0.00;0.00;;;;;;;4.80;100.00;100486.03;10402806;28;20801;-69
2022/02/17 22:58:57;;;;;;;0.00;0.00;;;;;;;4.79;100.00;100502.84;10370339;28;20041;-69
2022/02/17 23:03:57;;;;;;;0.00;0.00;;;;;;;4.75;100.00;100503.13;10394600;28;20268;-70
2022/02/17 23:14:16;;;;;;;0.00;0.00;;;;;;;4.63;100.00;100513.88;10401806;28;20257;-70
2022/02/17 23:19:17;;;;;;;0.00;0.00;;;;;;;4.58;100.00;100521.31;10408115;28;20021;-70
2022/02/17 23:24:17;;;;;;;0.00;0.00;;;;;;;4.54;100.00;100533.94;10385859;22;20460;-66
2022/02/17 23:29:17;;;;;;;0.00;0.00;;;;;;;4.63;100.00;100534.97;10350348;28;20034;-67
2022/02/17 23:34:18;;;;;;;0.10;0.10;;;;;;;4.73;100.00;100543.78;10335941;28;20022;-66
2022/02/17 23:39:18;;;;;;;0.00;0.00;;;;;;;4.81;100.00;100536.06;10325767;28;20453;-67
2022/02/17 23:44:18;;;;;;;0.00;0.00;;;;;;;4.85;100.00;100550.66;10344771;28;20786;-67